Terminal Aerodrome Forecast
Issued by NWS

Home | Current Version | Previous Version | Text Only | Print | Product List | Glossary On
Versions: 1 2 3 4 5 6 7 8 9 10 11 12 13
000
FTAK31 PANC 250531
TAFAEN
TAF
PAEN 250531Z 2506/2606 24008KT P6SM BKN080
     FM251200 04007KT P6SM VCSH SCT035 BKN060
     FM252100 04016KT P6SM BKN050=

USA.gov is the U.S. government's official web portal to all federal, state and local government web resources and services.